Flight Track Log - Related Links

Times and Time Zones

All times are in EDT time to prevent confusion due to time zone crossing. See the SWA34 flight status page for this flight to view local times or setup timezone preferences in your user account.

Time Position Orientation Groundspeed Altitude Reporting Facility
EDT Latitude Longitude Course Direction KTS MPH feet Rate Location/Type
Wed 06:50:59 AM 26.0719 -80.1758 273° West 155 178 900  Level Miami Center
Wed 06:51:35 AM 26.0733 -80.2106 273° West 196 226 2,000 1,932 Climbing Miami Center
Wed 06:51:58 AM 26.0767 -80.2408 277° West 206 237 2,800 2,386 Climbing Miami Center
Wed 06:52:58 AM 26.1303 -80.2725 332° Northwest 246 283 5,300 3,100 Climbing Miami Center
Wed 06:53:58 AM 26.1989 -80.2883 348° North 251 289 9,000 3,400 Climbing Miami Center
Wed 06:54:58 AM 26.2836 -80.3231 340° North 283 326 12,100 2,600 Climbing Miami Center
Wed 06:55:58 AM 26.3706 -80.3606 339° North 320 368 14,200 2,850 Climbing Miami Center
Wed 06:56:58 AM 26.4614 -80.4025 338° Northwest 343 395 17,800 2,650 Climbing Miami Center
Wed 06:57:58 AM 26.5564 -80.4450 338° Northwest 357 411 19,500 2,250 Climbing Miami Center
Wed 06:58:58 AM 26.6597 -80.4853 341° North 372 428 22,300 2,300 Climbing Miami Center
Wed 06:59:58 AM 26.7633 -80.5256 341° North 390 449 24,100 1,850 Climbing Miami Center
Wed 07:00:58 AM 26.8583 -80.5636 340° North 390 449 26,000 1,450 Climbing Miami Center
Wed 07:01:58 AM 26.9658 -80.6089 339° North 401 461 27,000 500 Climbing Miami Center
Wed 07:02:58 AM 27.0772 -80.6544 340° North 406 467 27,000  Level Miami Center
Wed 07:03:58 AM 27.1869 -80.6978 341° North 411 473 27,000  Level Miami Center
Wed 07:04:58 AM 27.2983 -80.7411 341° North 416 479 27,000  Level Miami Center
Wed 07:05:58 AM 27.4222 -80.7922 340° North 421 484 27,000  Level Miami Center
Wed 07:06:58 AM 27.5297 -80.8381 339° North 421 484 27,000  Level Miami Center
Wed 07:07:58 AM 27.6411 -80.8817 341° North 421 484 27,000  Level Miami Center
Wed 07:08:58 AM 27.7506 -80.9278 340° North 429 494 27,000  Level Miami Center
Wed 07:09:58 AM 27.8639 -80.9717 341° North 429 494 27,000  Level Miami Center
Wed 07:10:58 AM 27.9733 -81.0181 339° North 424 488 27,000  Level Miami Center
Wed 07:11:58 AM 28.0825 -81.0619 340° North 424 488 27,000  Level Miami Center
Wed 07:13:50 AM 28.2800 -81.1483 339° North 416 479 27,000  Level Jacksonville Center
Wed 07:14:50 AM 28.3869 -81.1914 340° North 416 479 27,000  Level Jacksonville Center
Wed 07:15:50 AM 28.4983 -81.2392 339° North 416 479 27,000 -350 Level Jacksonville Center
Wed 07:16:50 AM 28.6094 -81.2844 340° North 416 479 26,300 -900 Descending Jacksonville Center
Wed 07:17:50 AM 28.7186 -81.3325 339° North 416 479 25,200 -1,100 Descending Jacksonville Center
Wed 07:18:50 AM 28.8153 -81.3950 330° Northwest 405 466 24,100 -1,050 Descending Jacksonville Center
Wed 07:19:50 AM 28.9100 -81.4553 331° Northwest 400 460 23,100 -990 Descending Jacksonville Center
Wed 07:20:33 AM 28.9814 -81.5042 329° Northwest 385 443 22,400 -900 Descending Jacksonville Center
Wed 07:20:50 AM 29.0044 -81.5156 337° Northwest 395 455 22,200 -904 Descending Jacksonville Center
Wed 07:21:46 AM 29.0950 -81.5783 329° Northwest 384 442 21,300 -983 Descending Jacksonville Center
Wed 07:22:46 AM 29.1872 -81.6392 330° Northwest 385 443 20,300 -992 Descending Jacksonville Center
Wed 07:23:47 AM 29.2939 -81.6639 349° North 394 453 19,300 -968 Descending Jacksonville Center
Wed 07:24:50 AM 29.4008 -81.6936 346° North 384 442 18,300 -1,463 Descending Jacksonville Center
Wed 07:25:50 AM 29.5011 -81.7067 354° North 373 429 16,300 -2,230 Descending Jacksonville Center
Wed 07:26:43 AM 29.5992 -81.7056 North 353 406 14,100 -2,300 Descending Jacksonville Center
Wed 07:27:50 AM 29.7036 -81.7067 359° North 340 391 11,700 -1,795 Descending Jacksonville Center
Wed 07:28:50 AM 29.7872 -81.7103 358° North 338 389 10,300 -1,250 Descending Jacksonville Center
Wed 07:29:50 AM 29.8706 -81.7069 North 313 360 9,200 -1,426 Descending Jacksonville Center
Wed 07:30:52 AM 29.9603 -81.6939 North 289 333 7,400 -1,475 Descending Jacksonville Center
Wed 07:31:52 AM 30.0375 -81.6808 North 279 321 6,200 -992 Descending Jacksonville Center
Wed 07:32:53 AM 30.1167 -81.6681 North 280 322 5,400 -1,034 Descending Jacksonville Center
Wed 07:33:48 AM 30.1853 -81.6550 North 274 315 4,200 -1,304 Descending Jacksonville Center
Wed 07:34:48 AM 30.2603 -81.6444 North 267 307 2,900 -661 Descending Jacksonville Center
Wed 07:35:37 AM 30.3106 -81.6439 North 214 246 3,000 -330 Climbing Jacksonville Center
Wed 07:36:37 AM 30.3647 -81.6431 North 181 208 2,300 -744 Descending Jacksonville Center
Wed 07:37:38 AM 30.4150 -81.6472 356° North 174 200 1,500 -828 Descending Jacksonville Center
Wed 07:38:33 AM 30.4506 -81.6564 347° North 133 153 700 -873 Descending Jacksonville Center
Wed 07:40:00 AM 30.4833 -81.6833 311° West  Level FlightAware Approximate
Wed 07:47:00 AM 30.4941 -81.6879 311° West  Level Estimated

Login

Don't have an account? Register now (free) for customized features, flight alerts, and more!